Itapebi, Brazil
Current Conditions -  °F | °C
As of 11:00 AM on Sunday 21 Dec 2014 (Local Time) from SBPS Reporting Station
Scattered Clouds Scattered Clouds  
Wind Chill: 30°   Ceiling: Unl
Heat Index: 33°   Visibility: 6mi
Dew Point: 22°   Wind: 15mph
Humidity: 62%   Direction: 60°ENE
Pressure: 29.97"   Gusts: NA
Location:  15.95°S, 39.53°W
Report Text: SBPS 211400Z 06013KT 9999 SCT020 30/22 Q1015
Loading
Personal Weather Stations






























Interactive Weather Map New forecast layout! Learn more

10-Day Weather Forecast

Advertisements
Track Severe Weather on mobile